Etusivu
METAR-TAF:

METAR-TAF

Lentoasemat :

Kisarazu, Japani

Leveyspiiri: 35-24N, Pituuspiiri: 139-55E, korkeus merenpinnasta: 3 m

Tämänhetkinen sää

Tämä raportti tehtiin 2 tuntia ja 23 minuuttia sitten, kello 11.30 UTC
Tuuli 4 kn etelästä/kaakosta
Lämpötila 20°C
Kosteus 94%
Ilmanpaine 1003 hPa
Näkyvyys 10 km tai enemmän
Muutamia pilviä 3000 ft:n korkeudessa
Hajonneita pilviä 3500 ft:n korkeudessa
Hajonneita pilviä 23000 ft:n korkeudessa

METAR: RJTK 251130Z 15004KT 9999 FEW030 BKN035 BKN230 20/19 Q1003 RMK 1CU030 5CU035 6CI230 A2963

Aika: 22:53 (13:53 UTC)


TAF: puuttuu

Säähavainnot ja -ennusteet yli 4000 lentoasemalta (METAR- ja TAF-raportit).

Käytössä olevat sääasemat on merkitty karttaan keltaisilla ja punaisilla pisteillä.

Aseta hiiri pisteen päälle nähdäksesi sääaseman nimen.

Klikkaa sitten nähdäksesi säähavainnot ja -ennusteet.

Kartan vaihtaminen: klikkaa mustalla rastilla varustettuja vihreitä pisteitä, niin voit zoomata sisään; viivalla varustettua vihreää pistettä, niin voit zoomata ulos tai vihreitä nuolia, niin pääset viereisille kartoille.


METAR-TAF: